Ulen, Minnesota
Current Conditions -  °F | °C
As of 8:35 PM on Sunday 21 Dec 2014 (Local Time) from K3N8 Reporting Station
Overcast Overcast  
Wind Chill: 25°   Ceiling: 700
Heat Index: 33°   Visibility: 10mi
Dew Point: 32°   Wind: 10mph
Humidity: 96%   Direction: 140°SE
Pressure: 29.58"   Gusts: NA
Location:  47.08°N, 96.26°W
Report Text: K3N8 220235Z AUTO 14009KT 10SM OVC007 01/00 A2958 RMK AO2 T00051001
Loading
Personal Weather Stations






























Interactive Weather Map New forecast layout! Learn more

10-Day Weather Forecast

Advertisements
Track Severe Weather on mobile